Terminal Aerodrome Forecast
Issued by NWS Sterling, VA

Current Version | Previous Version | Graphics & Text | Print | Product List | Glossary On
Versions: 1 2 3 4 5 6 7 8 9 10 11 12 13 14 15 16 17 18 19 20 21 22 23 24
068
FTUS41 KLWX 262322
TAFDCA
TAF
KDCA 262322Z 2700/2724 33006KT P6SM VCSH BKN060 BKN200
     FM270200 VRB03KT P6SM VCSH BKN060 BKN200
     FM271200 VRB04KT P6SM BKN070=

USA.gov is the U.S. government's official web portal to all federal, state and local government web resources and services.